Time;durP1;ratioP1;P1;durP2;ratioP2;P2;SDS_P1;SDS_P2;PMS_P1;PMS_P2;Temp;Humidity;BMP_temperature;BMP_pressure;BME280_temperature;BME280_humidity;BME280_pressure;Samples;Min_cycle;Max_cycle;Signal;HPM_P1;HPM_P2
2022/10/31 00:00:07;;;;;;;;;;;20.20;80.10;;;;;;4492700;31;20091;-69
2022/10/31 00:02:33;;;;;;;;;;;20.20;80.00;;;;;;4492935;31;19977;-69
2022/10/31 00:04:58;;;;;;;;;;;20.20;80.10;;;;;;4492895;31;19993;-70
2022/10/31 00:07:24;;;;;;;;;;;20.20;80.10;;;;;;4492748;31;19980;-70
2022/10/31 00:09:50;;;;;;;;;;;20.20;80.10;;;;;;4492664;31;20307;-70
2022/10/31 00:12:15;;;;;;;;;;;20.10;79.90;;;;;;4483183;31;19981;-69
2022/10/31 00:14:42;;;;;;;;;;;20.10;79.90;;;;;;4497564;31;19992;-70
2022/10/31 00:17:07;;;;;;;;;;;20.20;79.90;;;;;;4497822;31;19970;-70
2022/10/31 00:19:33;;;;;;;;;;;20.10;79.90;;;;;;4497816;31;19973;-69
2022/10/31 00:21:59;;;;;;;;;;;20.10;79.80;;;;;;4497759;31;20437;-71
2022/10/31 00:24:24;;;;;;;;;;;20.10;79.90;;;;;;4483578;31;19980;-70
2022/10/31 00:26:50;;;;;;;;;;;20.10;79.80;;;;;;4497527;31;20043;-70
2022/10/31 00:29:16;;;;;;;;;;;20.10;79.90;;;;;;4483655;31;19966;-69
2022/10/31 00:31:41;;;;;;;;;;;20.10;79.90;;;;;;4497614;31;19976;-70
2022/10/31 00:34:07;;;;;;;;;;;20.10;79.90;;;;;;4497682;31;19970;-69
2022/10/31 00:36:33;;;;;;;;;;;20.10;79.90;;;;;;4497467;31;19969;-69
2022/10/31 00:38:58;;;;;;;;;;;20.10;79.80;;;;;;4483674;31;20032;-70
2022/10/31 00:41:24;;;;;;;;;;;20.10;79.80;;;;;;4483347;31;19992;-70
2022/10/31 00:43:50;;;;;;;;;;;20.10;79.80;;;;;;4497171;31;19969;-69
2022/10/31 00:46:16;;;;;;;;;;;20.00;79.80;;;;;;4497782;31;19985;-69
2022/10/31 00:48:42;;;;;;;;;;;20.10;79.90;;;;;;4483179;31;20106;-70
2022/10/31 00:51:07;;;;;;;;;;;20.00;79.90;;;;;;4497617;31;20295;-70
2022/10/31 00:53:33;;;;;;;;;;;20.00;79.90;;;;;;4497187;31;20091;-70
2022/10/31 00:55:59;;;;;;;;;;;20.00;80.80;;;;;;4497565;31;20021;-70
2022/10/31 00:58:24;;;;;;;;;;;20.00;79.90;;;;;;4497396;31;20028;-70
2022/10/31 01:00:56;;;;;;;;;;;20.00;80.00;;;;;;4497364;31;20039;-70
2022/10/31 01:03:22;;;;;;;;;;;20.00;80.00;;;;;;4483186;31;19981;-70
2022/10/31 01:06:03;;;;;;;;;;;20.00;80.00;;;;;;4497342;31;20099;-70
2022/10/31 01:08:29;;;;;;;;;;;20.00;80.00;;;;;;4497417;31;20143;-70
2022/10/31 01:11:02;;;;;;;;;;;20.00;79.90;;;;;;4497161;31;19984;-69
2022/10/31 01:13:27;;;;;;;;;;;20.00;79.80;;;;;;4497414;31;20279;-70
2022/10/31 01:15:57;;;;;;;;;;;20.00;79.80;;;;;;4497340;31;19969;-69
2022/10/31 01:18:24;;;;;;;;;;;20.00;79.70;;;;;;4497180;31;19993;-70
2022/10/31 01:21:07;;;;;;;;;;;20.00;79.60;;;;;;4497261;31;20020;-70
2022/10/31 01:23:32;;;;;;;;;;;20.00;79.60;;;;;;4493922;31;19981;-69
2022/10/31 01:25:59;;;;;;;;;;;20.00;79.50;;;;;;4494581;31;19962;-70
2022/10/31 01:28:25;;;;;;;;;;;20.00;79.50;;;;;;4494508;31;20012;-70
2022/10/31 01:30:51;;;;;;;;;;;20.00;79.50;;;;;;4494675;31;20314;-70
2022/10/31 01:33:16;;;;;;;;;;;20.00;79.50;;;;;;4494598;31;19962;-70
2022/10/31 01:35:42;;;;;;;;;;;20.00;79.40;;;;;;4494668;31;20295;-70
2022/10/31 01:38:08;;;;;;;;;;;20.00;79.40;;;;;;4480365;31;20042;-69
2022/10/31 01:40:33;;;;;;;;;;;19.90;79.40;;;;;;4494701;31;19974;-71
2022/10/31 01:42:59;;;;;;;;;;;20.00;79.40;;;;;;4494539;31;20013;-69
2022/10/31 01:45:25;;;;;;;;;;;19.90;79.30;;;;;;4494670;31;19977;-69
2022/10/31 01:47:50;;;;;;;;;;;19.90;79.30;;;;;;4494619;31;19966;-70
2022/10/31 01:50:32;;;;;;;;;;;19.90;79.30;;;;;;4494548;31;20051;-69
2022/10/31 01:52:59;;;;;;;;;;;19.90;79.30;;;;;;4494612;31;19994;-70
2022/10/31 01:55:28;;;;;;;;;;;19.90;79.30;;;;;;4494729;31;19988;-69
2022/10/31 01:57:55;;;;;;;;;;;19.90;79.30;;;;;;4494169;31;19989;-70
2022/10/31 02:00:21;;;;;;;;;;;19.90;79.30;;;;;;4494379;31;20500;-69
2022/10/31 02:02:48;;;;;;;;;;;19.90;79.30;;;;;;4494621;31;19985;-70
2022/10/31 02:05:15;;;;;;;;;;;19.90;79.20;;;;;;4494885;31;20047;-69
2022/10/31 02:07:58;;;;;;;;;;;19.90;79.20;;;;;;4494256;31;20387;-69
2022/10/31 02:10:24;;;;;;;;;;;19.90;79.20;;;;;;4480085;31;20101;-69
2022/10/31 02:12:53;;;;;;;;;;;19.90;79.20;;;;;;4494181;31;20343;-69
2022/10/31 02:15:19;;;;;;;;;;;19.90;79.30;;;;;;4494427;31;19989;-69
2022/10/31 02:17:45;;;;;;;;;;;19.80;79.10;;;;;;4494464;31;19974;-70
2022/10/31 02:20:21;;;;;;;;;;;19.80;79.20;;;;;;4494113;31;19980;-69
2022/10/31 02:23:02;;;;;;;;;;;19.90;79.20;;;;;;4494410;31;19993;-69
2022/10/31 02:25:27;;;;;;;;;;;19.90;79.20;;;;;;4494020;31;20031;-68
2022/10/31 02:28:05;;;;;;;;;;;19.80;79.10;;;;;;4493705;31;20095;-69
2022/10/31 02:31:00;;;;;;;;;;;19.80;79.20;;;;;;4493628;31;20330;-70
2022/10/31 02:33:33;;;;;;;;;;;19.80;79.20;;;;;;4483010;31;19984;-69
2022/10/31 02:36:11;;;;;;;;;;;19.80;79.20;;;;;;4493958;31;20411;-69
2022/10/31 02:38:40;;;;;;;;;;;19.80;79.10;;;;;;4479624;31;19981;-69
2022/10/31 02:41:11;;;;;;;;;;;19.80;79.10;;;;;;4493775;31;20527;-69
2022/10/31 02:43:47;;;;;;;;;;;19.80;79.10;;;;;;4493846;31;20103;-69
2022/10/31 02:46:16;;;;;;;;;;;19.80;79.10;;;;;;4493768;31;19992;-70
2022/10/31 02:48:43;;;;;;;;;;;19.80;79.10;;;;;;4493648;31;19973;-69
2022/10/31 02:51:10;;;;;;;;;;;19.80;79.10;;;;;;4493627;31;20397;-69
2022/10/31 02:53:36;;;;;;;;;;;19.80;79.10;;;;;;4493502;31;20111;-70
2022/10/31 02:56:02;;;;;;;;;;;19.80;79.10;;;;;;4493466;31;20044;-70
2022/10/31 02:58:31;;;;;;;;;;;19.70;79.00;;;;;;4493727;31;20280;-70
2022/10/31 03:01:32;;;;;;;;;;;19.70;79.10;;;;;;4493743;31;20338;-69
2022/10/31 03:03:57;;;;;;;;;;;19.70;79.00;;;;;;4444719;32;20085;-69
2022/10/31 03:06:29;;;;;;;;;;;19.80;79.10;;;;;;4482819;31;20284;-70
2022/10/31 03:08:59;;;;;;;;;;;19.70;79.10;;;;;;4493415;31;19969;-69
2022/10/31 03:11:29;;;;;;;;;;;19.70;79.00;;;;;;4493401;31;20058;-70
2022/10/31 03:14:08;;;;;;;;;;;19.70;79.00;;;;;;4493295;31;20166;-69
2022/10/31 03:16:48;;;;;;;;;;;19.70;79.00;;;;;;4479044;31;19977;-69
2022/10/31 03:19:24;;;;;;;;;;;19.70;78.90;;;;;;4493275;31;19974;-69
2022/10/31 03:21:55;;;;;;;;;;;19.70;78.90;;;;;;4493193;31;20029;-70
2022/10/31 03:24:22;;;;;;;;;;;19.70;78.90;;;;;;4493160;31;20291;-69
2022/10/31 03:26:51;;;;;;;;;;;19.70;78.90;;;;;;4478546;31;19973;-69
2022/10/31 03:29:19;;;;;;;;;;;19.70;78.90;;;;;;4493448;31;19981;-70
2022/10/31 03:31:47;;;;;;;;;;;19.70;78.80;;;;;;4493313;31;19965;-69
2022/10/31 03:34:14;;;;;;;;;;;19.70;78.80;;;;;;4492796;31;20315;-69
2022/10/31 03:36:41;;;;;;;;;;;19.60;78.80;;;;;;4493033;31;20018;-69
2022/10/31 03:39:08;;;;;;;;;;;19.60;78.80;;;;;;4493016;31;20322;-69
2022/10/31 03:41:38;;;;;;;;;;;19.60;78.70;;;;;;4492701;31;19977;-69
2022/10/31 03:44:07;;;;;;;;;;;19.60;78.70;;;;;;4478556;31;19992;-69
2022/10/31 03:46:32;;;;;;;;;;;19.60;78.70;;;;;;4492646;31;19985;-69
2022/10/31 03:48:58;;;;;;;;;;;19.60;78.70;;;;;;4492827;31;19976;-69
2022/10/31 03:51:27;;;;;;;;;;;19.60;78.70;;;;;;4492852;31;19969;-69
2022/10/31 03:53:55;;;;;;;;;;;19.60;78.70;;;;;;4492759;31;19973;-69
2022/10/31 03:56:26;;;;;;;;;;;19.60;78.60;;;;;;4492982;31;19984;-69
2022/10/31 03:58:58;;;;;;;;;;;19.60;78.60;;;;;;4493264;31;19989;-69
2022/10/31 04:01:25;;;;;;;;;;;19.60;78.60;;;;;;4492843;31;19983;-69
2022/10/31 04:03:51;;;;;;;;;;;19.60;78.60;;;;;;4492777;31;19982;-70
2022/10/31 04:06:18;;;;;;;;;;;19.60;78.60;;;;;;4492686;31;19970;-70
2022/10/31 04:08:47;;;;;;;;;;;19.60;78.60;;;;;;4492732;31;20387;-69
2022/10/31 04:11:15;;;;;;;;;;;19.60;78.60;;;;;;4492446;31;20024;-69
2022/10/31 04:13:42;;;;;;;;;;;19.60;78.50;;;;;;4492602;32;20028;-69
2022/10/31 04:16:08;;;;;;;;;;;19.60;78.50;;;;;;4492474;32;20055;-69
2022/10/31 04:18:34;;;;;;;;;;;19.60;78.50;;;;;;4493126;32;20078;-69
2022/10/31 04:21:05;;;;;;;;;;;19.60;78.50;;;;;;4492904;32;19988;-69
2022/10/31 04:23:32;;;;;;;;;;;19.60;78.50;;;;;;4492592;32;19988;-70
2022/10/31 04:25:57;;;;;;;;;;;19.50;78.50;;;;;;4492846;32;20509;-69
2022/10/31 04:28:23;;;;;;;;;;;19.50;78.40;;;;;;4492291;32;19980;-70
2022/10/31 04:30:49;;;;;;;;;;;19.50;78.50;;;;;;4492378;32;20388;-70
2022/10/31 04:33:15;;;;;;;;;;;19.50;78.50;;;;;;4492261;32;19970;-69
2022/10/31 04:35:40;;;;;;;;;;;19.50;78.50;;;;;;4492487;32;19970;-69
2022/10/31 04:38:06;;;;;;;;;;;19.50;78.40;;;;;;4492451;32;19976;-69
2022/10/31 04:40:32;;;;;;;;;;;19.50;78.50;;;;;;4492498;32;20096;-69
2022/10/31 04:42:57;;;;;;;;;;;19.50;78.40;;;;;;4492642;32;20505;-69
2022/10/31 04:45:23;;;;;;;;;;;19.50;78.50;;;;;;4492399;32;20445;-69
2022/10/31 04:47:48;;;;;;;;;;;19.50;78.50;;;;;;4492576;32;20047;-69
2022/10/31 04:50:14;;;;;;;;;;;19.50;78.40;;;;;;4492619;32;19970;-69
2022/10/31 04:52:40;;;;;;;;;;;19.50;78.40;;;;;;4492322;32;20529;-69
2022/10/31 04:55:06;;;;;;;;;;;19.50;78.40;;;;;;4492435;32;19966;-69
2022/10/31 04:57:32;;;;;;;;;;;19.50;78.30;;;;;;4494324;31;20043;-69
2022/10/31 04:59:57;;;;;;;;;;;19.50;78.30;;;;;;4495130;31;20512;-68
2022/10/31 05:02:23;;;;;;;;;;;19.50;78.30;;;;;;4494989;31;19966;-70
2022/10/31 05:04:49;;;;;;;;;;;19.50;78.30;;;;;;4495322;31;19985;-69
2022/10/31 05:07:14;;;;;;;;;;;19.40;78.30;;;;;;4494938;31;20366;-69
2022/10/31 05:09:40;;;;;;;;;;;19.50;79.20;;;;;;4494945;31;20480;-69
2022/10/31 05:12:06;;;;;;;;;;;19.40;78.30;;;;;;4494836;31;19974;-69
2022/10/31 05:14:31;;;;;;;;;;;19.40;78.30;;;;;;4480958;31;20174;-69
2022/10/31 05:16:57;;;;;;;;;;;19.40;78.30;;;;;;4495092;31;19966;-69
2022/10/31 05:19:22;;;;;;;;;;;19.40;78.30;;;;;;4480898;31;20394;-69
2022/10/31 05:21:49;;;;;;;;;;;19.40;78.30;;;;;;4494966;31;20330;-70
2022/10/31 05:24:15;;;;;;;;;;;19.40;78.30;;;;;;4494948;31;19973;-69
2022/10/31 05:26:40;;;;;;;;;;;19.40;78.30;;;;;;4494915;31;19997;-69
2022/10/31 05:29:06;;;;;;;;;;;19.40;78.30;;;;;;4494638;31;20386;-69
2022/10/31 05:31:31;;;;;;;;;;;19.40;78.20;;;;;;4494567;31;20408;-69
2022/10/31 05:33:57;;;;;;;;;;;19.40;78.20;;;;;;4494814;31;19981;-69
2022/10/31 05:36:23;;;;;;;;;;;19.40;78.20;;;;;;4494432;31;20276;-70
2022/10/31 05:38:48;;;;;;;;;;;19.40;78.20;;;;;;4494515;31;19973;-69
2022/10/31 05:41:14;;;;;;;;;;;19.40;78.20;;;;;;4494682;31;20025;-69
2022/10/31 05:43:40;;;;;;;;;;;19.40;78.20;;;;;;4480603;31;19998;-69
2022/10/31 05:46:05;;;;;;;;;;;19.40;78.20;;;;;;4494640;31;20364;-69
2022/10/31 05:48:31;;;;;;;;;;;19.40;78.30;;;;;;4494378;31;19996;-70
2022/10/31 05:50:57;;;;;;;;;;;19.30;78.20;;;;;;4494584;31;20104;-69
2022/10/31 05:53:22;;;;;;;;;;;19.40;78.20;;;;;;4494634;31;20379;-69
2022/10/31 05:55:48;;;;;;;;;;;19.30;78.20;;;;;;4494315;31;20300;-69
2022/10/31 05:58:14;;;;;;;;;;;19.30;78.20;;;;;;4494164;31;19980;-69
2022/10/31 06:00:39;;;;;;;;;;;19.40;78.30;;;;;;4494599;31;20377;-69
2022/10/31 06:03:06;;;;;;;;;;;19.30;78.10;;;;;;4494397;31;20058;-69
2022/10/31 06:05:33;;;;;;;;;;;19.30;78.10;;;;;;4494094;31;19984;-69
2022/10/31 06:07:58;;;;;;;;;;;19.30;78.10;;;;;;4494089;31;20059;-69
2022/10/31 06:10:24;;;;;;;;;;;19.30;78.10;;;;;;4494407;31;20386;-70
2022/10/31 06:12:50;;;;;;;;;;;19.30;78.00;;;;;;4494233;31;20009;-69
2022/10/31 06:15:16;;;;;;;;;;;19.30;78.10;;;;;;4493989;31;20319;-69
2022/10/31 06:17:42;;;;;;;;;;;19.30;78.00;;;;;;4494276;31;19981;-69
2022/10/31 06:20:08;;;;;;;;;;;19.30;78.00;;;;;;4493896;31;19972;-69
2022/10/31 06:22:34;;;;;;;;;;;19.30;78.00;;;;;;4494173;31;19982;-69
2022/10/31 06:25:00;;;;;;;;;;;19.30;78.00;;;;;;4494025;31;20005;-69
2022/10/31 06:27:25;;;;;;;;;;;19.30;78.00;;;;;;4493730;31;19978;-70
2022/10/31 06:29:51;;;;;;;;;;;19.30;78.00;;;;;;4493656;31;20302;-69
2022/10/31 06:32:17;;;;;;;;;;;19.30;78.00;;;;;;4493956;31;19973;-69
2022/10/31 06:34:43;;;;;;;;;;;19.30;78.00;;;;;;4493931;31;20059;-69
2022/10/31 06:37:11;;;;;;;;;;;19.30;78.00;;;;;;4493921;31;19980;-69
2022/10/31 06:39:36;;;;;;;;;;;19.30;78.00;;;;;;4494156;31;20070;-70
2022/10/31 06:42:02;;;;;;;;;;;19.20;77.90;;;;;;4493811;31;19973;-70
2022/10/31 06:44:28;;;;;;;;;;;19.30;78.10;;;;;;4493818;31;20310;-69
2022/10/31 06:46:54;;;;;;;;;;;19.30;78.00;;;;;;4493737;31;19977;-69
2022/10/31 06:49:19;;;;;;;;;;;19.30;78.00;;;;;;4493922;31;19973;-70
2022/10/31 06:51:49;;;;;;;;;;;19.20;77.90;;;;;;4493562;31;19989;-70
2022/10/31 06:54:15;;;;;;;;;;;19.20;78.00;;;;;;4493310;31;20397;-69
2022/10/31 06:56:40;;;;;;;;;;;19.20;77.90;;;;;;4479647;31;20006;-70
2022/10/31 06:59:06;;;;;;;;;;;19.20;77.90;;;;;;4494167;31;20306;-69
2022/10/31 07:01:32;;;;;;;;;;;19.20;78.00;;;;;;4493578;31;20326;-69
2022/10/31 07:03:58;;;;;;;;;;;19.20;77.90;;;;;;4493474;31;19980;-70
2022/10/31 07:06:23;;;;;;;;;;;19.20;77.90;;;;;;4493121;31;20046;-70
2022/10/31 07:08:49;;;;;;;;;;;19.20;77.80;;;;;;4493763;31;19961;-70
2022/10/31 07:11:14;;;;;;;;;;;19.20;77.80;;;;;;4493671;31;19972;-69
2022/10/31 07:13:40;;;;;;;;;;;19.20;77.80;;;;;;4493477;31;20009;-70
2022/10/31 07:16:13;;;;;;;;;;;19.20;77.80;;;;;;4493574;31;20369;-70
2022/10/31 07:18:39;;;;;;;;;;;19.20;77.80;;;;;;4493390;31;19978;-70
2022/10/31 07:21:05;;;;;;;;;;;19.20;77.80;;;;;;4492482;31;19981;-70
2022/10/31 07:23:32;;;;;;;;;;;19.10;77.70;;;;;;4493234;31;19981;-70
2022/10/31 07:25:58;;;;;;;;;;;19.10;77.70;;;;;;4492986;31;19980;-69
2022/10/31 07:28:25;;;;;;;;;;;19.10;77.70;;;;;;4492722;31;19969;-70
2022/10/31 07:30:54;;;;;;;;;;;19.20;77.80;;;;;;4493122;31;20094;-70
2022/10/31 07:33:20;;;;;;;;;;;19.10;77.70;;;;;;4493156;31;19985;-69
2022/10/31 07:35:46;;;;;;;;;;;19.10;77.70;;;;;;4493201;31;20410;-69
2022/10/31 07:38:12;;;;;;;;;;;19.10;76.30;;;;;;4493166;31;19987;-68
2022/10/31 07:40:39;;;;;;;;;;;19.10;76.30;;;;;;4493038;31;19977;-69
2022/10/31 07:43:05;;;;;;;;;;;19.10;76.10;;;;;;4492954;31;19978;-69
2022/10/31 07:45:30;;;;;;;;;;;19.10;76.90;;;;;;4492890;31;20002;-69
2022/10/31 07:47:56;;;;;;;;;;;19.10;77.30;;;;;;4492599;31;20120;-69
2022/10/31 07:50:27;;;;;;;;;;;19.10;77.20;;;;;;4492568;31;20516;-69
2022/10/31 07:53:03;;;;;;;;;;;19.10;77.30;;;;;;4493064;31;19989;-69
2022/10/31 07:55:30;;;;;;;;;;;19.10;77.50;;;;;;4492806;31;20119;-69
2022/10/31 07:57:56;;;;;;;;;;;19.10;77.40;;;;;;4492437;31;19993;-69
2022/10/31 08:00:22;;;;;;;;;;;19.20;77.40;;;;;;4492784;31;20328;-69
2022/10/31 08:02:48;;;;;;;;;;;19.20;77.40;;;;;;4492686;31;19977;-69
2022/10/31 08:05:13;;;;;;;;;;;19.20;77.40;;;;;;4492704;31;20345;-69
2022/10/31 08:07:39;;;;;;;;;;;19.20;77.50;;;;;;4492410;31;20363;-69
2022/10/31 08:10:05;;;;;;;;;;;19.10;77.30;;;;;;4492673;31;19974;-71
2022/10/31 08:12:31;;;;;;;;;;;19.10;77.40;;;;;;4478096;32;20018;-68
2022/10/31 08:14:56;;;;;;;;;;;19.10;77.50;;;;;;4492593;32;19957;-69
2022/10/31 08:17:22;;;;;;;;;;;19.10;77.50;;;;;;4492723;32;20391;-69
2022/10/31 08:19:48;;;;;;;;;;;19.20;77.60;;;;;;4492696;32;20405;-69
2022/10/31 08:22:13;;;;;;;;;;;19.10;77.50;;;;;;4492367;32;20425;-69
2022/10/31 08:24:40;;;;;;;;;;;19.10;77.60;;;;;;4492584;32;19992;-69
2022/10/31 08:27:05;;;;;;;;;;;19.10;77.60;;;;;;4492478;32;19966;-69
2022/10/31 08:29:31;;;;;;;;;;;19.10;77.60;;;;;;4492193;32;19974;-69
2022/10/31 08:31:57;;;;;;;;;;;19.10;77.60;;;;;;4493551;31;19973;-69
2022/10/31 08:34:23;;;;;;;;;;;19.10;77.70;;;;;;4495844;31;20357;-69
2022/10/31 08:36:49;;;;;;;;;;;19.10;77.60;;;;;;4495362;31;19985;-69
2022/10/31 08:39:15;;;;;;;;;;;19.10;77.70;;;;;;4495840;31;20013;-70
2022/10/31 08:41:40;;;;;;;;;;;19.20;77.70;;;;;;4495565;31;20005;-69
2022/10/31 08:44:06;;;;;;;;;;;19.10;77.60;;;;;;4495515;31;19978;-69
2022/10/31 08:46:32;;;;;;;;;;;19.10;77.60;;;;;;4495503;31;20071;-69
2022/10/31 08:48:58;;;;;;;;;;;19.20;77.70;;;;;;4495161;31;20383;-69
2022/10/31 08:51:23;;;;;;;;;;;19.10;77.60;;;;;;4495461;31;19969;-69
2022/10/31 08:53:49;;;;;;;;;;;19.20;77.70;;;;;;4495076;31;19992;-69
2022/10/31 08:56:15;;;;;;;;;;;19.20;77.70;;;;;;4495387;31;19980;-69
2022/10/31 08:58:40;;;;;;;;;;;19.10;77.60;;;;;;4495267;31;20395;-69
2022/10/31 09:01:06;;;;;;;;;;;19.20;77.70;;;;;;4495399;31;20100;-69
2022/10/31 09:03:32;;;;;;;;;;;19.10;77.60;;;;;;4495203;31;19973;-69
2022/10/31 09:05:59;;;;;;;;;;;19.10;77.60;;;;;;4495282;31;20099;-69
2022/10/31 09:08:25;;;;;;;;;;;19.20;77.60;;;;;;4495449;31;19978;-69
2022/10/31 09:10:51;;;;;;;;;;;19.10;77.60;;;;;;4494825;31;20063;-69
2022/10/31 09:13:20;;;;;;;;;;;19.10;77.50;;;;;;4495104;31;20088;-69
2022/10/31 09:15:47;;;;;;;;;;;19.20;77.60;;;;;;4495161;31;19985;-69
2022/10/31 09:18:13;;;;;;;;;;;19.20;77.60;;;;;;4495056;31;19984;-69
2022/10/31 09:20:40;;;;;;;;;;;19.20;77.60;;;;;;4494830;31;19973;-69
2022/10/31 09:23:07;;;;;;;;;;;19.20;77.60;;;;;;4494757;31;19969;-69
2022/10/31 09:25:34;;;;;;;;;;;19.10;77.50;;;;;;4494823;31;20368;-69
2022/10/31 09:28:01;;;;;;;;;;;19.10;77.60;;;;;;4494526;31;19985;-69
2022/10/31 09:30:27;;;;;;;;;;;19.10;77.50;;;;;;4494890;31;19985;-69
2022/10/31 09:32:56;;;;;;;;;;;19.10;77.60;;;;;;4494872;31;19988;-69
2022/10/31 09:35:22;;;;;;;;;;;19.10;77.50;;;;;;4494855;31;20019;-69
2022/10/31 09:37:53;;;;;;;;;;;19.20;77.60;;;;;;4494803;31;20387;-69
2022/10/31 09:40:19;;;;;;;;;;;19.20;77.60;;;;;;4495695;31;20509;-69
2022/10/31 09:42:49;;;;;;;;;;;19.20;77.60;;;;;;4494543;31;19970;-69
2022/10/31 09:45:20;;;;;;;;;;;19.20;77.60;;;;;;4494688;31;20107;-69
2022/10/31 09:47:46;;;;;;;;;;;19.20;77.50;;;;;;4494638;31;20059;-69
2022/10/31 09:50:21;;;;;;;;;;;19.10;77.50;;;;;;4494295;31;19989;-69
2022/10/31 09:53:03;;;;;;;;;;;19.20;77.50;;;;;;4494799;31;19973;-69
2022/10/31 09:55:37;;;;;;;;;;;19.20;77.50;;;;;;4494749;31;20078;-69
2022/10/31 09:58:02;;;;;;;;;;;19.20;77.50;;;;;;4494728;31;19996;-69
2022/10/31 10:00:29;;;;;;;;;;;19.20;77.50;;;;;;4494577;31;20008;-69
2022/10/31 10:02:54;;;;;;;;;;;19.20;77.40;;;;;;4494165;31;19989;-69
2022/10/31 10:05:43;;;;;;;;;;;19.20;77.40;;;;;;4494348;31;20079;-69
2022/10/31 10:08:11;;;;;;;;;;;19.20;77.40;;;;;;4487989;31;19992;-69
2022/10/31 10:10:37;;;;;;;;;;;19.20;77.50;;;;;;4493992;31;19977;-69
2022/10/31 10:13:03;;;;;;;;;;;19.20;77.50;;;;;;4493936;31;20005;-69
2022/10/31 10:15:36;;;;;;;;;;;19.20;77.50;;;;;;4494257;31;20108;-69
2022/10/31 10:18:21;;;;;;;;;;;19.20;77.50;;;;;;4493980;31;19993;-69
2022/10/31 10:20:57;;;;;;;;;;;19.20;77.50;;;;;;4494498;31;20000;-69
2022/10/31 10:23:23;;;;;;;;;;;19.20;77.60;;;;;;4494162;31;19973;-69
2022/10/31 10:25:53;;;;;;;;;;;19.20;77.40;;;;;;4494077;31;20330;-69
2022/10/31 10:28:38;;;;;;;;;;;19.10;77.40;;;;;;4480523;31;19989;-69
2022/10/31 10:31:12;;;;;;;;;;;19.10;77.40;;;;;;4493873;31;19970;-69
2022/10/31 10:33:50;;;;;;;;;;;19.10;77.30;;;;;;4494168;31;20379;-69
2022/10/31 10:36:20;;;;;;;;;;;19.10;77.10;;;;;;4494198;31;20391;-69
2022/10/31 10:38:49;;;;;;;;;;;19.10;77.00;;;;;;4493945;31;20354;-69
2022/10/31 10:41:17;;;;;;;;;;;19.10;77.00;;;;;;4493801;31;19974;-69
2022/10/31 10:43:43;;;;;;;;;;;19.10;77.00;;;;;;4493549;31;19977;-69
2022/10/31 10:49:03;;;;;;;;;;;19.10;77.10;;;;;;4493860;31;19978;-69
2022/10/31 10:51:39;;;;;;;;;;;19.10;77.00;;;;;;4493923;31;19965;-69
2022/10/31 10:54:13;;;;;;;;;;;19.10;76.90;;;;;;4493744;31;19993;-69
2022/10/31 10:56:44;;;;;;;;;;;19.10;76.90;;;;;;4493614;31;19988;-69
2022/10/31 10:59:16;;;;;;;;;;;19.10;77.00;;;;;;4492529;31;20434;-69
2022/10/31 11:01:41;;;;;;;;;;;19.10;76.90;;;;;;4493372;31;20020;-69
2022/10/31 11:04:39;;;;;;;;;;;19.10;77.00;;;;;;4493665;31;19966;-69
2022/10/31 11:07:06;;;;;;;;;;;19.10;77.00;;;;;;4483424;31;20035;-69
2022/10/31 11:09:33;;;;;;;;;;;19.10;76.90;;;;;;4493403;31;19985;-69
2022/10/31 11:11:59;;;;;;;;;;;19.20;77.00;;;;;;4493621;31;19981;-69
2022/10/31 11:14:26;;;;;;;;;;;19.10;76.90;;;;;;4493051;31;20048;-70
2022/10/31 11:16:54;;;;;;;;;;;19.10;76.90;;;;;;4493223;31;20024;-69
2022/10/31 11:19:22;;;;;;;;;;;19.20;76.80;;;;;;4493324;31;20008;-69
2022/10/31 11:21:48;;;;;;;;;;;19.10;76.80;;;;;;4493496;31;19989;-69
2022/10/31 11:24:27;;;;;;;;;;;19.20;76.90;;;;;;4492301;31;20059;-69
2022/10/31 11:27:09;;;;;;;;;;;19.10;76.80;;;;;;4493158;31;19988;-69
2022/10/31 11:29:36;;;;;;;;;;;19.10;76.70;;;;;;4493073;31;20004;-69
2022/10/31 11:32:02;;;;;;;;;;;19.10;76.70;;;;;;4492738;31;20340;-68
2022/10/31 11:34:30;;;;;;;;;;;19.20;76.90;;;;;;4493288;31;19969;-69
2022/10/31 11:36:58;;;;;;;;;;;19.10;76.70;;;;;;4493291;31;19989;-69
2022/10/31 11:39:24;;;;;;;;;;;19.10;76.70;;;;;;4492992;31;20333;-68
2022/10/31 11:41:51;;;;;;;;;;;19.10;76.60;;;;;;4492971;31;19965;-69
2022/10/31 11:44:22;;;;;;;;;;;19.20;76.70;;;;;;4478526;31;19984;-71
2022/10/31 11:46:52;;;;;;;;;;;19.20;76.60;;;;;;4493027;31;20119;-70
2022/10/31 11:49:44;;;;;;;;;;;19.20;76.70;;;;;;4492959;31;20374;-70
2022/10/31 11:52:13;;;;;;;;;;;19.20;76.50;;;;;;4490679;31;20289;-71
2022/10/31 11:54:42;;;;;;;;;;;19.10;76.50;;;;;;4492799;31;19978;-69
2022/10/31 11:57:24;;;;;;;;;;;19.10;76.50;;;;;;4492724;31;20387;-70
2022/10/31 11:59:54;;;;;;;;;;;19.20;76.50;;;;;;4492733;31;20443;-69
2022/10/31 12:02:20;;;;;;;;;;;19.10;76.60;;;;;;4492816;31;20150;-69
2022/10/31 12:04:48;;;;;;;;;;;19.10;76.70;;;;;;4492431;31;19988;-69
2022/10/31 12:07:14;;;;;;;;;;;19.10;76.40;;;;;;4492201;31;20074;-68
2022/10/31 12:09:40;;;;;;;;;;;19.10;76.30;;;;;;4492669;31;20086;-69
2022/10/31 12:12:18;;;;;;;;;;;19.10;76.30;;;;;;4492293;31;19988;-69
2022/10/31 12:14:47;;;;;;;;;;;19.10;76.20;;;;;;4492600;31;19992;-69
2022/10/31 12:17:19;;;;;;;;;;;19.10;76.10;;;;;;4492710;32;19965;-69
2022/10/31 12:19:59;;;;;;;;;;;19.10;76.40;;;;;;4492677;32;19988;-69
2022/10/31 12:22:27;;;;;;;;;;;19.10;76.10;;;;;;4492694;32;19989;-69
2022/10/31 12:24:53;;;;;;;;;;;19.10;76.00;;;;;;4492532;32;20387;-69
2022/10/31 12:27:38;;;;;;;;;;;19.10;75.90;;;;;;4492531;32;19973;-68
2022/10/31 12:30:21;;;;;;;;;;;19.10;76.00;;;;;;4492382;32;20062;-69
2022/10/31 12:33:02;;;;;;;;;;;19.10;75.90;;;;;;4492539;32;20406;-69
2022/10/31 12:36:00;;;;;;;;;;;19.10;75.90;;;;;;4492204;32;20107;-69
2022/10/31 12:38:37;;;;;;;;;;;19.10;76.00;;;;;;4465607;32;19986;-69
2022/10/31 12:41:21;;;;;;;;;;;19.00;76.00;;;;;;4492500;32;20066;-69
2022/10/31 12:43:50;;;;;;;;;;;19.10;76.20;;;;;;4492176;32;19985;-68
2022/10/31 12:46:25;;;;;;;;;;;19.10;76.00;;;;;;4492021;32;20058;-70
2022/10/31 12:48:51;;;;;;;;;;;19.10;76.00;;;;;;4492611;32;20106;-69
2022/10/31 12:51:36;;;;;;;;;;;19.10;76.10;;;;;;4492383;32;19985;-69
2022/10/31 12:54:08;;;;;;;;;;;19.10;76.00;;;;;;4492104;32;19991;-69
2022/10/31 12:56:43;;;;;;;;;;;19.10;75.80;;;;;;4492043;32;19973;-69
2022/10/31 12:59:12;;;;;;;;;;;19.10;75.90;;;;;;4491990;32;20464;-69
2022/10/31 13:01:45;;;;;;;;;;;19.00;75.70;;;;;;4492289;32;19981;-69
2022/10/31 13:04:31;;;;;;;;;;;19.10;75.80;;;;;;4492320;32;20070;-69
2022/10/31 13:06:59;;;;;;;;;;;19.10;75.80;;;;;;4492319;32;19973;-69
2022/10/31 13:09:28;;;;;;;;;;;19.00;75.70;;;;;;4492259;32;20087;-69
2022/10/31 13:12:00;;;;;;;;;;;19.00;75.90;;;;;;4492112;32;20442;-69
2022/10/31 13:14:29;;;;;;;;;;;19.00;75.90;;;;;;4492012;32;20499;-70
2022/10/31 13:16:55;;;;;;;;;;;19.00;76.10;;;;;;4492374;32;19997;-69
2022/10/31 13:19:21;;;;;;;;;;;19.10;75.90;;;;;;4494774;31;20023;-69
2022/10/31 13:22:07;;;;;;;;;;;19.00;76.10;;;;;;4495202;31;20398;-69
2022/10/31 13:24:44;;;;;;;;;;;19.10;75.80;;;;;;4494964;31;19973;-70
2022/10/31 13:27:17;;;;;;;;;;;19.10;76.00;;;;;;4480378;31;20327;-70
2022/10/31 13:29:52;;;;;;;;;;;19.10;76.10;;;;;;4494648;31;20032;-69
2022/10/31 13:32:18;;;;;;;;;;;19.10;76.10;;;;;;4494677;31;19970;-70
2022/10/31 13:34:51;;;;;;;;;;;19.10;76.00;;;;;;4494932;31;20103;-70
2022/10/31 13:37:38;;;;;;;;;;;19.10;76.00;;;;;;4494818;31;20054;-70
2022/10/31 13:40:25;;;;;;;;;;;19.00;75.90;;;;;;4494761;31;19981;-70
2022/10/31 13:42:55;;;;;;;;;;;19.00;75.90;;;;;;4495005;31;20013;-70
2022/10/31 13:45:23;;;;;;;;;;;19.10;76.00;;;;;;4495002;31;20001;-69
2022/10/31 13:47:57;;;;;;;;;;;19.00;75.80;;;;;;4494851;31;19981;-70
2022/10/31 13:50:28;;;;;;;;;;;19.10;75.90;;;;;;4494568;31;20401;-69
2022/10/31 13:53:11;;;;;;;;;;;19.00;75.80;;;;;;4494455;31;19987;-70
2022/10/31 13:55:38;;;;;;;;;;;19.00;75.90;;;;;;4494728;31;19985;-69
2022/10/31 13:58:19;;;;;;;;;;;19.10;75.80;;;;;;4494484;31;19992;-70
2022/10/31 14:00:44;;;;;;;;;;;19.10;75.80;;;;;;4494311;31;20016;-68
2022/10/31 14:03:18;;;;;;;;;;;19.00;75.60;;;;;;4494404;31;20112;-67
2022/10/31 14:05:51;;;;;;;;;;;19.10;75.80;;;;;;4494455;31;20389;-69
2022/10/31 14:08:18;;;;;;;;;;;19.00;75.80;;;;;;4494519;31;19986;-70
2022/10/31 14:10:49;;;;;;;;;;;19.10;75.80;;;;;;4494548;31;19988;-69
2022/10/31 14:13:21;;;;;;;;;;;19.00;75.80;;;;;;4494172;31;20296;-69
2022/10/31 14:15:57;;;;;;;;;;;19.10;76.00;;;;;;4494199;31;19970;-69
2022/10/31 14:18:29;;;;;;;;;;;19.10;76.10;;;;;;4494215;31;20056;-69
2022/10/31 14:20:55;;;;;;;;;;;19.10;76.20;;;;;;4494495;31;19988;-69
2022/10/31 14:23:30;;;;;;;;;;;19.00;76.30;;;;;;4494104;31;20491;-69
2022/10/31 14:26:08;;;;;;;;;;;19.10;76.30;;;;;;4493927;31;19988;-69
2022/10/31 14:28:35;;;;;;;;;;;19.10;76.40;;;;;;4493588;31;20330;-68